sensor_id;sensor_type;location;lat;lon;timestamp;P1;durP1;ratioP1;P2;durP2;ratioP2
46551;SDS011;32278;51.810;4.712;2022-11-20T00:00:40;18.05;;;9.30;;
46551;SDS011;32278;51.810;4.712;2022-11-20T00:03:05;18.73;;;8.07;;
46551;SDS011;32278;51.810;4.712;2022-11-20T00:05:32;17.80;;;9.25;;
46551;SDS011;32278;51.810;4.712;2022-11-20T00:07:58;16.17;;;7.95;;
46551;SDS011;32278;51.810;4.712;2022-11-20T00:10:23;19.58;;;7.82;;
46551;SDS011;32278;51.810;4.712;2022-11-20T00:12:49;17.58;;;8.13;;
46551;SDS011;32278;51.810;4.712;2022-11-20T00:15:14;18.33;;;9.02;;
46551;SDS011;32278;51.810;4.712;2022-11-20T00:17:40;18.10;;;8.85;;
46551;SDS011;32278;51.810;4.712;2022-11-20T00:20:05;15.38;;;8.18;;
46551;SDS011;32278;51.810;4.712;2022-11-20T00:22:31;22.65;;;9.27;;
46551;SDS011;32278;51.810;4.712;2022-11-20T00:24:57;17.23;;;8.52;;
46551;SDS011;32278;51.810;4.712;2022-11-20T00:27:23;19.10;;;9.63;;
46551;SDS011;32278;51.810;4.712;2022-11-20T00:29:48;21.15;;;9.73;;
46551;SDS011;32278;51.810;4.712;2022-11-20T00:32:14;18.83;;;8.48;;
46551;SDS011;32278;51.810;4.712;2022-11-20T00:34:40;20.10;;;9.50;;
46551;SDS011;32278;51.810;4.712;2022-11-20T00:37:05;15.15;;;8.38;;
46551;SDS011;32278;51.810;4.712;2022-11-20T00:39:31;23.45;;;9.30;;
46551;SDS011;32278;51.810;4.712;2022-11-20T00:41:56;20.02;;;8.85;;
46551;SDS011;32278;51.810;4.712;2022-11-20T00:44:22;20.10;;;8.30;;
46551;SDS011;32278;51.810;4.712;2022-11-20T00:46:47;19.92;;;9.30;;
46551;SDS011;32278;51.810;4.712;2022-11-20T00:49:13;18.40;;;8.82;;
46551;SDS011;32278;51.810;4.712;2022-11-20T00:51:39;21.10;;;10.63;;
46551;SDS011;32278;51.810;4.712;2022-11-20T00:54:04;24.83;;;9.32;;
46551;SDS011;32278;51.810;4.712;2022-11-20T00:56:30;21.77;;;9.75;;
46551;SDS011;32278;51.810;4.712;2022-11-20T00:58:58;16.00;;;8.23;;
46551;SDS011;32278;51.810;4.712;2022-11-20T01:01:26;20.58;;;9.13;;
46551;SDS011;32278;51.810;4.712;2022-11-20T01:03:54;21.38;;;10.23;;
46551;SDS011;32278;51.810;4.712;2022-11-20T01:06:26;18.70;;;8.88;;
46551;SDS011;32278;51.810;4.712;2022-11-20T01:08:55;16.00;;;8.73;;
46551;SDS011;32278;51.810;4.712;2022-11-20T01:11:23;20.38;;;10.32;;
46551;SDS011;32278;51.810;4.712;2022-11-20T01:13:50;16.33;;;7.38;;
46551;SDS011;32278;51.810;4.712;2022-11-20T01:16:19;20.73;;;10.02;;
46551;SDS011;32278;51.810;4.712;2022-11-20T01:18:46;18.58;;;8.48;;
46551;SDS011;32278;51.810;4.712;2022-11-20T01:21:23;18.02;;;9.25;;
46551;SDS011;32278;51.810;4.712;2022-11-20T01:23:56;18.40;;;9.38;;
46551;SDS011;32278;51.810;4.712;2022-11-20T01:26:23;16.10;;;8.98;;
46551;SDS011;32278;51.810;4.712;2022-11-20T01:28:50;20.83;;;9.10;;
46551;SDS011;32278;51.810;4.712;2022-11-20T01:31:26;19.88;;;9.18;;
46551;SDS011;32278;51.810;4.712;2022-11-20T01:33:57;19.65;;;8.95;;
46551;SDS011;32278;51.810;4.712;2022-11-20T01:36:25;17.98;;;8.70;;
46551;SDS011;32278;51.810;4.712;2022-11-20T01:38:53;18.88;;;8.57;;
46551;SDS011;32278;51.810;4.712;2022-11-20T01:41:20;18.88;;;9.43;;
46551;SDS011;32278;51.810;4.712;2022-11-20T01:44:05;18.15;;;8.02;;
46551;SDS011;32278;51.810;4.712;2022-11-20T01:46:31;22.08;;;9.63;;
46551;SDS011;32278;51.810;4.712;2022-11-20T01:49:20;18.52;;;9.48;;
46551;SDS011;32278;51.810;4.712;2022-11-20T01:51:52;23.38;;;9.40;;
46551;SDS011;32278;51.810;4.712;2022-11-20T01:54:33;17.35;;;8.68;;
46551;SDS011;32278;51.810;4.712;2022-11-20T01:57:03;23.13;;;9.15;;
46551;SDS011;32278;51.810;4.712;2022-11-20T01:59:31;21.25;;;9.20;;
46551;SDS011;32278;51.810;4.712;2022-11-20T02:01:57;20.15;;;9.63;;
46551;SDS011;32278;51.810;4.712;2022-11-20T02:04:23;21.20;;;9.57;;
46551;SDS011;32278;51.810;4.712;2022-11-20T02:06:50;20.80;;;9.77;;
46551;SDS011;32278;51.810;4.712;2022-11-20T02:09:24;21.27;;;9.90;;
46551;SDS011;32278;51.810;4.712;2022-11-20T02:11:49;16.38;;;9.15;;
46551;SDS011;32278;51.810;4.712;2022-11-20T02:14:16;18.42;;;9.07;;
46551;SDS011;32278;51.810;4.712;2022-11-20T02:16:44;19.90;;;8.95;;
46551;SDS011;32278;51.810;4.712;2022-11-20T02:19:30;22.20;;;10.10;;
46551;SDS011;32278;51.810;4.712;2022-11-20T02:22:00;17.88;;;8.82;;
46551;SDS011;32278;51.810;4.712;2022-11-20T02:24:33;19.08;;;9.02;;
46551;SDS011;32278;51.810;4.712;2022-11-20T02:27:03;22.05;;;9.48;;
46551;SDS011;32278;51.810;4.712;2022-11-20T02:32:05;24.08;;;9.15;;
46551;SDS011;32278;51.810;4.712;2022-11-20T02:34:31;18.80;;;9.25;;
46551;SDS011;32278;51.810;4.712;2022-11-20T02:36:57;23.10;;;10.13;;
46551;SDS011;32278;51.810;4.712;2022-11-20T02:39:25;19.95;;;8.98;;
46551;SDS011;32278;51.810;4.712;2022-11-20T02:41:53;20.95;;;9.68;;
46551;SDS011;32278;51.810;4.712;2022-11-20T02:44:19;19.35;;;9.77;;
46551;SDS011;32278;51.810;4.712;2022-11-20T02:46:45;19.58;;;9.20;;
46551;SDS011;32278;51.810;4.712;2022-11-20T02:49:11;19.02;;;8.50;;
46551;SDS011;32278;51.810;4.712;2022-11-20T02:51:36;20.83;;;9.35;;
46551;SDS011;32278;51.810;4.712;2022-11-20T02:54:02;23.00;;;9.60;;
46551;SDS011;32278;51.810;4.712;2022-11-20T02:56:28;26.60;;;9.73;;
46551;SDS011;32278;51.810;4.712;2022-11-20T02:58:54;23.63;;;10.25;;
46551;SDS011;32278;51.810;4.712;2022-11-20T03:01:20;21.23;;;9.65;;
46551;SDS011;32278;51.810;4.712;2022-11-20T03:03:46;20.50;;;9.90;;
46551;SDS011;32278;51.810;4.712;2022-11-20T03:06:13;22.88;;;9.82;;
46551;SDS011;32278;51.810;4.712;2022-11-20T03:08:40;21.52;;;9.13;;
46551;SDS011;32278;51.810;4.712;2022-11-20T03:11:06;20.60;;;9.93;;
46551;SDS011;32278;51.810;4.712;2022-11-20T03:13:32;20.27;;;10.27;;
46551;SDS011;32278;51.810;4.712;2022-11-20T03:16:03;17.85;;;9.32;;
46551;SDS011;32278;51.810;4.712;2022-11-20T03:18:30;27.05;;;11.02;;
46551;SDS011;32278;51.810;4.712;2022-11-20T03:20:57;26.00;;;10.88;;
46551;SDS011;32278;51.810;4.712;2022-11-20T03:23:23;18.98;;;9.90;;
46551;SDS011;32278;51.810;4.712;2022-11-20T03:25:49;18.05;;;9.13;;
46551;SDS011;32278;51.810;4.712;2022-11-20T03:28:15;19.58;;;9.68;;
46551;SDS011;32278;51.810;4.712;2022-11-20T03:30:40;19.60;;;9.15;;
46551;SDS011;32278;51.810;4.712;2022-11-20T03:33:06;18.13;;;9.15;;
46551;SDS011;32278;51.810;4.712;2022-11-20T03:35:31;20.08;;;10.35;;
46551;SDS011;32278;51.810;4.712;2022-11-20T03:37:57;19.40;;;9.75;;
46551;SDS011;32278;51.810;4.712;2022-11-20T03:40:23;15.43;;;8.50;;
46551;SDS011;32278;51.810;4.712;2022-11-20T03:42:48;21.20;;;9.80;;
46551;SDS011;32278;51.810;4.712;2022-11-20T03:45:15;23.63;;;9.63;;
46551;SDS011;32278;51.810;4.712;2022-11-20T03:47:42;20.52;;;9.65;;
46551;SDS011;32278;51.810;4.712;2022-11-20T03:50:09;21.70;;;9.75;;
46551;SDS011;32278;51.810;4.712;2022-11-20T03:52:37;21.02;;;10.25;;
46551;SDS011;32278;51.810;4.712;2022-11-20T03:55:03;22.65;;;8.90;;
46551;SDS011;32278;51.810;4.712;2022-11-20T03:57:29;20.30;;;9.23;;
46551;SDS011;32278;51.810;4.712;2022-11-20T03:59:55;17.42;;;8.95;;
46551;SDS011;32278;51.810;4.712;2022-11-20T04:02:20;20.70;;;9.57;;
46551;SDS011;32278;51.810;4.712;2022-11-20T04:04:46;26.42;;;10.30;;
46551;SDS011;32278;51.810;4.712;2022-11-20T04:07:12;19.58;;;9.43;;
46551;SDS011;32278;51.810;4.712;2022-11-20T04:09:37;16.23;;;8.60;;
46551;SDS011;32278;51.810;4.712;2022-11-20T04:12:03;20.58;;;9.88;;
46551;SDS011;32278;51.810;4.712;2022-11-20T04:14:29;23.00;;;9.85;;
46551;SDS011;32278;51.810;4.712;2022-11-20T04:16:54;22.55;;;10.07;;
46551;SDS011;32278;51.810;4.712;2022-11-20T04:19:20;18.02;;;8.60;;
46551;SDS011;32278;51.810;4.712;2022-11-20T04:21:46;18.02;;;8.77;;
46551;SDS011;32278;51.810;4.712;2022-11-20T04:24:11;22.15;;;9.63;;
46551;SDS011;32278;51.810;4.712;2022-11-20T04:26:37;24.90;;;10.85;;
46551;SDS011;32278;51.810;4.712;2022-11-20T04:29:04;23.17;;;10.02;;
46551;SDS011;32278;51.810;4.712;2022-11-20T04:31:30;19.20;;;9.80;;
46551;SDS011;32278;51.810;4.712;2022-11-20T04:33:58;22.33;;;9.88;;
46551;SDS011;32278;51.810;4.712;2022-11-20T04:36:26;22.98;;;10.23;;
46551;SDS011;32278;51.810;4.712;2022-11-20T04:38:57;17.45;;;9.80;;
46551;SDS011;32278;51.810;4.712;2022-11-20T04:41:29;26.38;;;10.05;;
46551;SDS011;32278;51.810;4.712;2022-11-20T04:43:57;22.80;;;9.65;;
46551;SDS011;32278;51.810;4.712;2022-11-20T04:46:30;20.73;;;9.63;;
46551;SDS011;32278;51.810;4.712;2022-11-20T04:48:57;22.00;;;11.02;;
46551;SDS011;32278;51.810;4.712;2022-11-20T04:51:24;21.77;;;9.80;;
46551;SDS011;32278;51.810;4.712;2022-11-20T04:53:49;17.90;;;9.45;;
46551;SDS011;32278;51.810;4.712;2022-11-20T04:56:15;24.77;;;10.45;;
46551;SDS011;32278;51.810;4.712;2022-11-20T04:58:42;24.05;;;10.07;;
46551;SDS011;32278;51.810;4.712;2022-11-20T05:01:15;20.40;;;9.65;;
46551;SDS011;32278;51.810;4.712;2022-11-20T05:03:45;22.20;;;9.48;;
46551;SDS011;32278;51.810;4.712;2022-11-20T05:06:12;24.73;;;11.10;;
46551;SDS011;32278;51.810;4.712;2022-11-20T05:08:40;23.35;;;9.73;;
46551;SDS011;32278;51.810;4.712;2022-11-20T05:11:07;21.85;;;10.60;;
46551;SDS011;32278;51.810;4.712;2022-11-20T05:13:35;20.70;;;9.68;;
46551;SDS011;32278;51.810;4.712;2022-11-20T05:16:04;19.20;;;10.23;;
46551;SDS011;32278;51.810;4.712;2022-11-20T05:18:34;21.75;;;9.95;;
46551;SDS011;32278;51.810;4.712;2022-11-20T05:21:01;27.30;;;11.05;;
46551;SDS011;32278;51.810;4.712;2022-11-20T05:23:27;25.55;;;10.52;;
46551;SDS011;32278;51.810;4.712;2022-11-20T05:25:54;20.95;;;10.27;;
46551;SDS011;32278;51.810;4.712;2022-11-20T05:28:21;22.27;;;10.30;;
46551;SDS011;32278;51.810;4.712;2022-11-20T05:30:47;23.08;;;9.93;;
46551;SDS011;32278;51.810;4.712;2022-11-20T05:33:13;23.13;;;10.32;;
46551;SDS011;32278;51.810;4.712;2022-11-20T05:35:39;21.85;;;10.50;;
46551;SDS011;32278;51.810;4.712;2022-11-20T05:38:05;21.10;;;10.02;;
46551;SDS011;32278;51.810;4.712;2022-11-20T05:40:30;20.48;;;10.32;;
46551;SDS011;32278;51.810;4.712;2022-11-20T05:42:56;21.65;;;10.13;;
46551;SDS011;32278;51.810;4.712;2022-11-20T05:45:22;18.77;;;9.68;;
46551;SDS011;32278;51.810;4.712;2022-11-20T05:47:47;21.60;;;9.50;;
46551;SDS011;32278;51.810;4.712;2022-11-20T05:50:13;21.02;;;9.32;;
46551;SDS011;32278;51.810;4.712;2022-11-20T05:52:39;23.95;;;9.50;;
46551;SDS011;32278;51.810;4.712;2022-11-20T05:55:05;20.15;;;9.68;;
46551;SDS011;32278;51.810;4.712;2022-11-20T05:57:31;19.45;;;9.45;;
46551;SDS011;32278;51.810;4.712;2022-11-20T05:59:57;20.48;;;9.57;;
46551;SDS011;32278;51.810;4.712;2022-11-20T06:02:22;20.98;;;11.02;;
46551;SDS011;32278;51.810;4.712;2022-11-20T06:04:48;22.73;;;11.00;;
46551;SDS011;32278;51.810;4.712;2022-11-20T06:07:14;23.00;;;10.02;;
46551;SDS011;32278;51.810;4.712;2022-11-20T06:09:40;24.08;;;10.98;;
46551;SDS011;32278;51.810;4.712;2022-11-20T06:12:05;20.63;;;10.52;;
46551;SDS011;32278;51.810;4.712;2022-11-20T06:14:31;22.35;;;10.45;;
46551;SDS011;32278;51.810;4.712;2022-11-20T06:16:57;18.75;;;9.77;;
46551;SDS011;32278;51.810;4.712;2022-11-20T06:19:23;25.50;;;11.05;;
46551;SDS011;32278;51.810;4.712;2022-11-20T06:21:49;26.08;;;11.25;;
46551;SDS011;32278;51.810;4.712;2022-11-20T06:24:15;24.30;;;10.75;;
46551;SDS011;32278;51.810;4.712;2022-11-20T06:26:41;26.20;;;10.48;;
46551;SDS011;32278;51.810;4.712;2022-11-20T06:29:06;23.25;;;10.27;;
46551;SDS011;32278;51.810;4.712;2022-11-20T06:31:32;22.17;;;10.23;;
46551;SDS011;32278;51.810;4.712;2022-11-20T06:34:00;22.58;;;10.32;;
46551;SDS011;32278;51.810;4.712;2022-11-20T06:36:26;22.45;;;10.35;;
46551;SDS011;32278;51.810;4.712;2022-11-20T06:38:51;22.83;;;11.15;;
46551;SDS011;32278;51.810;4.712;2022-11-20T06:41:18;23.38;;;11.20;;
46551;SDS011;32278;51.810;4.712;2022-11-20T06:43:45;23.23;;;11.95;;
46551;SDS011;32278;51.810;4.712;2022-11-20T06:46:12;28.67;;;10.68;;
46551;SDS011;32278;51.810;4.712;2022-11-20T06:48:38;24.75;;;11.10;;
46551;SDS011;32278;51.810;4.712;2022-11-20T06:51:05;24.42;;;11.23;;
46551;SDS011;32278;51.810;4.712;2022-11-20T06:53:32;24.30;;;11.35;;
46551;SDS011;32278;51.810;4.712;2022-11-20T06:55:58;21.42;;;10.82;;
46551;SDS011;32278;51.810;4.712;2022-11-20T06:58:26;24.52;;;11.90;;
46551;SDS011;32278;51.810;4.712;2022-11-20T07:00:52;24.02;;;10.52;;
46551;SDS011;32278;51.810;4.712;2022-11-20T07:03:18;21.65;;;10.85;;
46551;SDS011;32278;51.810;4.712;2022-11-20T07:05:44;29.45;;;11.55;;
46551;SDS011;32278;51.810;4.712;2022-11-20T07:08:11;20.60;;;10.30;;
46551;SDS011;32278;51.810;4.712;2022-11-20T07:10:37;22.98;;;11.15;;
46551;SDS011;32278;51.810;4.712;2022-11-20T07:13:03;26.75;;;10.65;;
46551;SDS011;32278;51.810;4.712;2022-11-20T07:15:28;20.67;;;10.07;;
46551;SDS011;32278;51.810;4.712;2022-11-20T07:17:54;24.25;;;11.73;;
46551;SDS011;32278;51.810;4.712;2022-11-20T07:20:20;22.88;;;10.75;;
46551;SDS011;32278;51.810;4.712;2022-11-20T07:22:46;22.70;;;10.90;;
46551;SDS011;32278;51.810;4.712;2022-11-20T07:25:11;24.75;;;12.15;;
46551;SDS011;32278;51.810;4.712;2022-11-20T07:27:37;25.17;;;10.75;;
46551;SDS011;32278;51.810;4.712;2022-11-20T07:30:03;32.38;;;11.75;;
46551;SDS011;32278;51.810;4.712;2022-11-20T07:32:29;23.20;;;11.40;;
46551;SDS011;32278;51.810;4.712;2022-11-20T07:34:54;22.45;;;10.63;;
46551;SDS011;32278;51.810;4.712;2022-11-20T07:37:20;23.92;;;10.95;;
46551;SDS011;32278;51.810;4.712;2022-11-20T07:39:46;19.10;;;10.07;;
46551;SDS011;32278;51.810;4.712;2022-11-20T07:42:11;25.92;;;9.93;;
46551;SDS011;32278;51.810;4.712;2022-11-20T07:44:37;23.35;;;12.00;;
46551;SDS011;32278;51.810;4.712;2022-11-20T07:47:03;24.25;;;11.02;;
46551;SDS011;32278;51.810;4.712;2022-11-20T07:49:29;23.90;;;11.45;;
46551;SDS011;32278;51.810;4.712;2022-11-20T07:51:55;25.27;;;11.63;;
46551;SDS011;32278;51.810;4.712;2022-11-20T07:54:21;25.13;;;11.65;;
46551;SDS011;32278;51.810;4.712;2022-11-20T07:56:47;27.17;;;11.80;;
46551;SDS011;32278;51.810;4.712;2022-11-20T07:59:13;26.90;;;11.77;;
46551;SDS011;32278;51.810;4.712;2022-11-20T08:01:40;26.17;;;11.80;;
46551;SDS011;32278;51.810;4.712;2022-11-20T08:04:07;25.65;;;11.77;;
46551;SDS011;32278;51.810;4.712;2022-11-20T08:06:33;25.67;;;12.18;;
46551;SDS011;32278;51.810;4.712;2022-11-20T08:08:58;24.08;;;11.32;;
46551;SDS011;32278;51.810;4.712;2022-11-20T08:11:24;26.38;;;12.63;;
46551;SDS011;32278;51.810;4.712;2022-11-20T08:14:08;27.25;;;12.25;;
46551;SDS011;32278;51.810;4.712;2022-11-20T08:16:37;25.13;;;11.65;;
46551;SDS011;32278;51.810;4.712;2022-11-20T08:19:08;22.33;;;11.35;;
46551;SDS011;32278;51.810;4.712;2022-11-20T08:21:34;24.75;;;12.13;;
46551;SDS011;32278;51.810;4.712;2022-11-20T08:23:59;23.88;;;11.85;;
46551;SDS011;32278;51.810;4.712;2022-11-20T08:26:25;23.30;;;11.18;;
46551;SDS011;32278;51.810;4.712;2022-11-20T08:28:55;29.58;;;11.88;;
46551;SDS011;32278;51.810;4.712;2022-11-20T08:31:22;28.38;;;11.77;;
46551;SDS011;32278;51.810;4.712;2022-11-20T08:33:48;23.02;;;11.57;;
46551;SDS011;32278;51.810;4.712;2022-11-20T08:36:14;22.70;;;11.95;;
46551;SDS011;32278;51.810;4.712;2022-11-20T08:38:40;22.35;;;11.05;;
46551;SDS011;32278;51.810;4.712;2022-11-20T08:41:05;25.98;;;11.70;;
46551;SDS011;32278;51.810;4.712;2022-11-20T08:43:51;24.83;;;12.18;;
46551;SDS011;32278;51.810;4.712;2022-11-20T08:46:22;28.02;;;11.40;;
46551;SDS011;32278;51.810;4.712;2022-11-20T08:48:48;24.52;;;10.88;;
46551;SDS011;32278;51.810;4.712;2022-11-20T08:51:14;29.05;;;12.27;;
46551;SDS011;32278;51.810;4.712;2022-11-20T08:53:41;24.02;;;11.50;;
46551;SDS011;32278;51.810;4.712;2022-11-20T08:56:07;26.15;;;11.68;;
46551;SDS011;32278;51.810;4.712;2022-11-20T08:58:34;26.13;;;14.10;;
46551;SDS011;32278;51.810;4.712;2022-11-20T09:01:00;23.65;;;11.70;;
46551;SDS011;32278;51.810;4.712;2022-11-20T09:03:26;25.80;;;12.77;;
46551;SDS011;32278;51.810;4.712;2022-11-20T09:06:02;25.10;;;12.82;;
46551;SDS011;32278;51.810;4.712;2022-11-20T09:08:29;22.08;;;11.50;;
46551;SDS011;32278;51.810;4.712;2022-11-20T09:10:56;25.23;;;12.20;;
46551;SDS011;32278;51.810;4.712;2022-11-20T09:13:22;24.92;;;12.18;;
46551;SDS011;32278;51.810;4.712;2022-11-20T09:15:52;22.92;;;12.23;;
46551;SDS011;32278;51.810;4.712;2022-11-20T09:18:23;29.02;;;12.70;;
46551;SDS011;32278;51.810;4.712;2022-11-20T09:20:51;27.08;;;12.93;;
46551;SDS011;32278;51.810;4.712;2022-11-20T09:23:20;28.08;;;13.10;;
46551;SDS011;32278;51.810;4.712;2022-11-20T09:25:46;22.95;;;11.75;;
46551;SDS011;32278;51.810;4.712;2022-11-20T09:28:11;28.77;;;14.40;;
46551;SDS011;32278;51.810;4.712;2022-11-20T09:30:37;28.65;;;13.40;;
46551;SDS011;32278;51.810;4.712;2022-11-20T09:33:03;30.23;;;14.27;;
46551;SDS011;32278;51.810;4.712;2022-11-20T09:35:30;28.17;;;12.73;;
46551;SDS011;32278;51.810;4.712;2022-11-20T09:37:55;32.83;;;14.38;;
46551;SDS011;32278;51.810;4.712;2022-11-20T09:40:28;28.63;;;13.05;;
46551;SDS011;32278;51.810;4.712;2022-11-20T09:48:20;32.92;;;13.30;;
46551;SDS011;32278;51.810;4.712;2022-11-20T09:54:05;33.72;;;13.90;;
46551;SDS011;32278;51.810;4.712;2022-11-20T09:56:38;33.25;;;13.68;;
46551;SDS011;32278;51.810;4.712;2022-11-20T09:59:07;32.42;;;14.18;;
46551;SDS011;32278;51.810;4.712;2022-11-20T10:01:49;28.30;;;13.52;;
46551;SDS011;32278;51.810;4.712;2022-11-20T10:04:17;31.80;;;14.85;;
46551;SDS011;32278;51.810;4.712;2022-11-20T10:06:50;33.08;;;15.85;;
46551;SDS011;32278;51.810;4.712;2022-11-20T10:09:43;36.95;;;17.40;;
46551;SDS011;32278;51.810;4.712;2022-11-20T10:26:20;36.80;;;15.68;;
46551;SDS011;32278;51.810;4.712;2022-11-20T10:31:44;35.15;;;16.48;;
46551;SDS011;32278;51.810;4.712;2022-11-20T10:36:46;33.63;;;14.93;;
46551;SDS011;32278;51.810;4.712;2022-11-20T10:39:24;36.97;;;15.73;;
46551;SDS011;32278;51.810;4.712;2022-11-20T10:41:54;32.67;;;15.50;;
46551;SDS011;32278;51.810;4.712;2022-11-20T10:44:21;38.47;;;16.38;;
46551;SDS011;32278;51.810;4.712;2022-11-20T10:47:12;32.95;;;16.17;;
46551;SDS011;32278;51.810;4.712;2022-11-20T10:49:40;38.22;;;17.25;;
46551;SDS011;32278;51.810;4.712;2022-11-20T11:01:17;38.85;;;16.83;;
46551;SDS011;32278;51.810;4.712;2022-11-20T11:03:46;36.25;;;16.80;;
46551;SDS011;32278;51.810;4.712;2022-11-20T11:08:41;37.92;;;18.00;;
46551;SDS011;32278;51.810;4.712;2022-11-20T11:13:48;38.00;;;15.73;;
46551;SDS011;32278;51.810;4.712;2022-11-20T11:16:21;42.72;;;18.50;;
46551;SDS011;32278;51.810;4.712;2022-11-20T11:18:48;41.45;;;16.73;;
46551;SDS011;32278;51.810;4.712;2022-11-20T11:21:19;41.53;;;18.38;;
46551;SDS011;32278;51.810;4.712;2022-11-20T11:23:57;46.83;;;17.65;;
46551;SDS011;32278;51.810;4.712;2022-11-20T11:26:27;43.63;;;18.05;;
46551;SDS011;32278;51.810;4.712;2022-11-20T11:28:57;44.22;;;19.52;;
46551;SDS011;32278;51.810;4.712;2022-11-20T11:31:26;38.47;;;16.70;;
46551;SDS011;32278;51.810;4.712;2022-11-20T11:34:16;46.17;;;18.13;;
46551;SDS011;32278;51.810;4.712;2022-11-20T11:36:42;42.08;;;17.95;;
46551;SDS011;32278;51.810;4.712;2022-11-20T11:39:19;43.38;;;18.33;;
46551;SDS011;32278;51.810;4.712;2022-11-20T11:41:45;44.92;;;18.27;;
46551;SDS011;32278;51.810;4.712;2022-11-20T11:44:15;44.28;;;17.70;;
46551;SDS011;32278;51.810;4.712;2022-11-20T11:47:00;44.10;;;18.17;;
46551;SDS011;32278;51.810;4.712;2022-11-20T11:49:27;39.88;;;17.65;;
46551;SDS011;32278;51.810;4.712;2022-11-20T11:54:54;38.40;;;16.90;;
46551;SDS011;32278;51.810;4.712;2022-11-20T12:00:14;40.22;;;16.60;;
46551;SDS011;32278;51.810;4.712;2022-11-20T12:07:58;42.75;;;17.75;;
46551;SDS011;32278;51.810;4.712;2022-11-20T12:15:58;46.85;;;18.55;;
46551;SDS011;32278;51.810;4.712;2022-11-20T12:18:25;41.30;;;17.95;;
46551;SDS011;32278;51.810;4.712;2022-11-20T12:26:31;45.65;;;19.00;;
46551;SDS011;32278;51.810;4.712;2022-11-20T12:29:40;41.67;;;17.75;;
46551;SDS011;32278;51.810;4.712;2022-11-20T12:41:07;43.28;;;18.35;;
46551;SDS011;32278;51.810;4.712;2022-11-20T12:44:08;49.55;;;21.08;;
46551;SDS011;32278;51.810;4.712;2022-11-20T12:52:41;54.55;;;22.23;;
46551;SDS011;32278;51.810;4.712;2022-11-20T12:58:11;53.25;;;21.67;;
46551;SDS011;32278;51.810;4.712;2022-11-20T13:00:43;70.38;;;22.60;;
46551;SDS011;32278;51.810;4.712;2022-11-20T13:08:41;61.97;;;22.35;;
46551;SDS011;32278;51.810;4.712;2022-11-20T13:19:16;61.90;;;23.95;;
46551;SDS011;32278;51.810;4.712;2022-11-20T13:21:43;61.47;;;23.90;;
46551;SDS011;32278;51.810;4.712;2022-11-20T13:29:26;64.00;;;23.95;;
46551;SDS011;32278;51.810;4.712;2022-11-20T13:32:00;71.82;;;24.35;;
46551;SDS011;32278;51.810;4.712;2022-11-20T13:37:38;79.32;;;24.70;;
46551;SDS011;32278;51.810;4.712;2022-11-20T13:42:33;67.10;;;26.35;;
46551;SDS011;32278;51.810;4.712;2022-11-20T13:45:09;63.83;;;24.20;;
46551;SDS011;32278;51.810;4.712;2022-11-20T13:47:49;76.85;;;27.13;;
46551;SDS011;32278;51.810;4.712;2022-11-20T13:50:16;79.20;;;26.98;;
46551;SDS011;32278;51.810;4.712;2022-11-20T14:01:00;82.72;;;29.48;;
46551;SDS011;32278;51.810;4.712;2022-11-20T14:03:44;87.50;;;29.50;;
46551;SDS011;32278;51.810;4.712;2022-11-20T14:06:13;79.13;;;26.90;;
46551;SDS011;32278;51.810;4.712;2022-11-20T14:08:52;88.63;;;27.75;;
46551;SDS011;32278;51.810;4.712;2022-11-20T14:11:19;93.40;;;29.90;;
46551;SDS011;32278;51.810;4.712;2022-11-20T14:16:20;96.22;;;29.48;;
46551;SDS011;32278;51.810;4.712;2022-11-20T14:18:47;90.25;;;29.67;;
46551;SDS011;32278;51.810;4.712;2022-11-20T14:21:21;92.53;;;29.08;;
46551;SDS011;32278;51.810;4.712;2022-11-20T14:23:47;97.43;;;30.52;;
46551;SDS011;32278;51.810;4.712;2022-11-20T14:26:16;90.20;;;29.73;;
46551;SDS011;32278;51.810;4.712;2022-11-20T14:28:47;96.28;;;29.00;;
46551;SDS011;32278;51.810;4.712;2022-11-20T14:31:18;100.72;;;27.95;;
46551;SDS011;32278;51.810;4.712;2022-11-20T14:33:48;93.05;;;29.85;;
46551;SDS011;32278;51.810;4.712;2022-11-20T14:36:18;101.47;;;29.30;;
46551;SDS011;32278;51.810;4.712;2022-11-20T14:38:46;98.97;;;30.83;;
46551;SDS011;32278;51.810;4.712;2022-11-20T14:41:22;116.55;;;32.20;;
46551;SDS011;32278;51.810;4.712;2022-11-20T14:43:53;114.28;;;31.08;;
46551;SDS011;32278;51.810;4.712;2022-11-20T14:46:22;118.68;;;33.65;;
46551;SDS011;32278;51.810;4.712;2022-11-20T14:48:54;120.28;;;30.48;;
46551;SDS011;32278;51.810;4.712;2022-11-20T14:54:10;121.50;;;32.78;;
46551;SDS011;32278;51.810;4.712;2022-11-20T14:56:39;121.90;;;32.10;;
46551;SDS011;32278;51.810;4.712;2022-11-20T14:59:04;126.38;;;36.00;;
46551;SDS011;32278;51.810;4.712;2022-11-20T15:01:32;118.20;;;32.53;;
46551;SDS011;32278;51.810;4.712;2022-11-20T15:03:59;113.55;;;32.28;;
46551;SDS011;32278;51.810;4.712;2022-11-20T15:06:36;114.47;;;32.25;;
46551;SDS011;32278;51.810;4.712;2022-11-20T15:09:03;119.40;;;31.63;;
46551;SDS011;32278;51.810;4.712;2022-11-20T15:11:31;115.85;;;30.15;;
46551;SDS011;32278;51.810;4.712;2022-11-20T15:14:01;132.07;;;35.25;;
46551;SDS011;32278;51.810;4.712;2022-11-20T15:16:29;118.85;;;31.92;;
46551;SDS011;32278;51.810;4.712;2022-11-20T15:18:56;108.95;;;32.55;;
46551;SDS011;32278;51.810;4.712;2022-11-20T15:21:22;113.75;;;31.35;;
46551;SDS011;32278;51.810;4.712;2022-11-20T15:23:47;110.05;;;31.10;;
46551;SDS011;32278;51.810;4.712;2022-11-20T15:26:14;127.38;;;32.65;;
46551;SDS011;32278;51.810;4.712;2022-11-20T15:28:47;124.15;;;32.58;;
46551;SDS011;32278;51.810;4.712;2022-11-20T15:31:15;127.53;;;34.80;;
46551;SDS011;32278;51.810;4.712;2022-11-20T15:33:47;121.20;;;30.83;;
46551;SDS011;32278;51.810;4.712;2022-11-20T15:36:13;124.05;;;33.00;;
46551;SDS011;32278;51.810;4.712;2022-11-20T15:38:39;125.22;;;32.35;;
46551;SDS011;32278;51.810;4.712;2022-11-20T15:41:05;112.07;;;31.58;;
46551;SDS011;32278;51.810;4.712;2022-11-20T15:43:31;109.82;;;29.95;;
46551;SDS011;32278;51.810;4.712;2022-11-20T15:46:00;97.00;;;28.90;;
46551;SDS011;32278;51.810;4.712;2022-11-20T15:48:36;119.65;;;32.28;;
46551;SDS011;32278;51.810;4.712;2022-11-20T15:53:37;117.07;;;30.67;;
46551;SDS011;32278;51.810;4.712;2022-11-20T15:56:04;96.63;;;29.60;;
46551;SDS011;32278;51.810;4.712;2022-11-20T15:58:30;111.97;;;29.77;;
46551;SDS011;32278;51.810;4.712;2022-11-20T16:00:55;113.43;;;30.05;;
46551;SDS011;32278;51.810;4.712;2022-11-20T16:03:21;119.75;;;30.90;;
46551;SDS011;32278;51.810;4.712;2022-11-20T16:05:48;108.55;;;28.92;;
46551;SDS011;32278;51.810;4.712;2022-11-20T16:08:14;101.65;;;31.05;;
46551;SDS011;32278;51.810;4.712;2022-11-20T16:10:39;97.43;;;28.75;;
46551;SDS011;32278;51.810;4.712;2022-11-20T16:13:16;114.57;;;29.77;;
46551;SDS011;32278;51.810;4.712;2022-11-20T16:16:02;112.57;;;30.23;;
46551;SDS011;32278;51.810;4.712;2022-11-20T16:18:30;119.65;;;28.58;;
46551;SDS011;32278;51.810;4.712;2022-11-20T16:20:56;107.03;;;28.70;;
46551;SDS011;32278;51.810;4.712;2022-11-20T16:23:22;111.43;;;29.75;;
46551;SDS011;32278;51.810;4.712;2022-11-20T16:25:48;126.80;;;31.02;;
46551;SDS011;32278;51.810;4.712;2022-11-20T16:28:14;119.88;;;29.48;;
46551;SDS011;32278;51.810;4.712;2022-11-20T16:30:40;104.53;;;27.63;;
46551;SDS011;32278;51.810;4.712;2022-11-20T16:33:13;96.10;;;27.65;;
46551;SDS011;32278;51.810;4.712;2022-11-20T16:35:39;91.43;;;27.92;;